sensor_id;sensor_type;location;lat;lon;timestamp;pressure;altitude;pressure_sealevel;temperature;humidity
20710;BME280;10516;51.518;9.864;2023-05-01T00:02:00;99156.53;;;9.70;59.46
20710;BME280;10516;51.518;9.864;2023-05-01T00:04:26;99158.41;;;9.69;58.87
20710;BME280;10516;51.518;9.864;2023-05-01T00:06:51;99158.63;;;9.68;58.98
20710;BME280;10516;51.518;9.864;2023-05-01T00:09:16;99151.81;;;9.60;58.92
20710;BME280;10516;51.518;9.864;2023-05-01T00:11:42;99146.13;;;9.68;58.76
20710;BME280;10516;51.518;9.864;2023-05-01T00:14:07;99144.84;;;9.59;58.30
20710;BME280;10516;51.518;9.864;2023-05-01T00:16:32;99145.47;;;9.50;59.04
20710;BME280;10516;51.518;9.864;2023-05-01T00:18:59;99137.22;;;9.51;58.89
20710;BME280;10516;51.518;9.864;2023-05-01T00:21:24;99140.34;;;9.60;58.70
20710;BME280;10516;51.518;9.864;2023-05-01T00:23:50;99132.16;;;9.50;58.40
20710;BME280;10516;51.518;9.864;2023-05-01T00:26:15;99130.63;;;9.54;58.45
20710;BME280;10516;51.518;9.864;2023-05-01T00:28:41;99128.91;;;9.48;58.98
20710;BME280;10516;51.518;9.864;2023-05-01T00:31:06;99123.19;;;9.56;58.75
20710;BME280;10516;51.518;9.864;2023-05-01T00:33:32;99122.63;;;9.54;58.71
20710;BME280;10516;51.518;9.864;2023-05-01T00:35:58;99116.81;;;9.57;59.02
20710;BME280;10516;51.518;9.864;2023-05-01T00:38:23;99117.50;;;9.52;58.77
20710;BME280;10516;51.518;9.864;2023-05-01T00:40:48;99117.44;;;9.47;59.56
20710;BME280;10516;51.518;9.864;2023-05-01T00:43:13;99121.94;;;9.47;58.79
20710;BME280;10516;51.518;9.864;2023-05-01T00:45:39;99110.47;;;9.46;58.33
20710;BME280;10516;51.518;9.864;2023-05-01T00:48:07;99114.19;;;9.45;59.30
20710;BME280;10516;51.518;9.864;2023-05-01T00:50:33;99112.09;;;9.36;58.48
20710;BME280;10516;51.518;9.864;2023-05-01T00:52:59;99107.03;;;9.34;59.63
20710;BME280;10516;51.518;9.864;2023-05-01T00:55:25;99102.28;;;9.25;58.48
20710;BME280;10516;51.518;9.864;2023-05-01T00:57:51;99100.19;;;9.27;58.72
20710;BME280;10516;51.518;9.864;2023-05-01T01:00:16;99103.44;;;9.29;59.30
20710;BME280;10516;51.518;9.864;2023-05-01T01:02:43;99094.88;;;9.27;59.37
20710;BME280;10516;51.518;9.864;2023-05-01T01:05:09;99096.25;;;9.18;58.97
20710;BME280;10516;51.518;9.864;2023-05-01T01:07:47;99094.53;;;9.23;59.08
20710;BME280;10516;51.518;9.864;2023-05-01T01:10:22;99097.88;;;9.19;58.75
20710;BME280;10516;51.518;9.864;2023-05-01T01:17:58;99086.09;;;9.03;59.07
20710;BME280;10516;51.518;9.864;2023-05-01T01:25:32;99064.22;;;9.01;59.57
20710;BME280;10516;51.518;9.864;2023-05-01T01:35:37;99053.69;;;8.94;59.85
20710;BME280;10516;51.518;9.864;2023-05-01T01:38:06;99055.28;;;8.95;59.54
20710;BME280;10516;51.518;9.864;2023-05-01T01:40:44;99057.94;;;8.95;59.68
20710;BME280;10516;51.518;9.864;2023-05-01T01:43:14;99049.75;;;8.97;60.02
20710;BME280;10516;51.518;9.864;2023-05-01T01:45:42;99063.28;;;8.95;59.42
20710;BME280;10516;51.518;9.864;2023-05-01T01:48:20;99056.72;;;8.86;59.22
20710;BME280;10516;51.518;9.864;2023-05-01T01:50:46;99046.97;;;8.80;59.22
20710;BME280;10516;51.518;9.864;2023-05-01T01:53:15;99040.38;;;8.83;59.24
20710;BME280;10516;51.518;9.864;2023-05-01T01:55:42;99036.09;;;8.36;60.58
20710;BME280;10516;51.518;9.864;2023-05-01T01:58:08;99043.63;;;8.62;60.98
20710;BME280;10516;51.518;9.864;2023-05-01T02:00:35;99037.72;;;8.83;59.96
20710;BME280;10516;51.518;9.864;2023-05-01T02:03:00;99033.09;;;8.78;59.27
20710;BME280;10516;51.518;9.864;2023-05-01T02:05:26;99029.41;;;8.79;59.98
20710;BME280;10516;51.518;9.864;2023-05-01T02:07:52;99023.25;;;8.90;59.56
20710;BME280;10516;51.518;9.864;2023-05-01T02:10:18;99023.38;;;8.72;60.16
20710;BME280;10516;51.518;9.864;2023-05-01T02:12:45;99024.78;;;8.86;60.51
20710;BME280;10516;51.518;9.864;2023-05-01T02:15:12;99023.00;;;8.92;58.84
20710;BME280;10516;51.518;9.864;2023-05-01T02:17:39;99018.28;;;8.82;59.35
20710;BME280;10516;51.518;9.864;2023-05-01T02:20:05;99019.22;;;8.76;59.97
20710;BME280;10516;51.518;9.864;2023-05-01T02:22:31;99024.66;;;8.47;60.60
20710;BME280;10516;51.518;9.864;2023-05-01T02:24:57;99014.00;;;8.70;60.13
20710;BME280;10516;51.518;9.864;2023-05-01T02:27:33;99015.28;;;8.79;59.07
20710;BME280;10516;51.518;9.864;2023-05-01T02:29:59;99003.63;;;8.45;61.34
20710;BME280;10516;51.518;9.864;2023-05-01T02:32:25;99001.38;;;8.88;59.88
20710;BME280;10516;51.518;9.864;2023-05-01T02:34:50;98997.09;;;8.87;59.82
20710;BME280;10516;51.518;9.864;2023-05-01T02:37:15;98995.84;;;8.78;59.86
20710;BME280;10516;51.518;9.864;2023-05-01T02:39:41;98993.06;;;8.73;60.13
20710;BME280;10516;51.518;9.864;2023-05-01T02:42:07;98992.16;;;8.68;59.86
20710;BME280;10516;51.518;9.864;2023-05-01T02:44:41;98983.91;;;8.69;60.47
20710;BME280;10516;51.518;9.864;2023-05-01T02:47:07;98975.84;;;8.53;59.86
20710;BME280;10516;51.518;9.864;2023-05-01T02:49:35;98976.06;;;8.63;60.24
20710;BME280;10516;51.518;9.864;2023-05-01T02:52:00;98978.63;;;8.58;60.15
20710;BME280;10516;51.518;9.864;2023-05-01T02:54:27;98961.47;;;8.65;60.02
20710;BME280;10516;51.518;9.864;2023-05-01T02:56:53;98960.22;;;8.56;59.88
20710;BME280;10516;51.518;9.864;2023-05-01T02:59:19;98972.50;;;8.57;60.78
20710;BME280;10516;51.518;9.864;2023-05-01T03:01:44;98957.56;;;8.56;60.92
20710;BME280;10516;51.518;9.864;2023-05-01T03:04:09;98955.84;;;8.50;60.36
20710;BME280;10516;51.518;9.864;2023-05-01T03:06:34;98957.34;;;8.46;60.82
20710;BME280;10516;51.518;9.864;2023-05-01T03:08:59;98955.13;;;8.43;60.94
20710;BME280;10516;51.518;9.864;2023-05-01T03:11:25;98948.22;;;8.42;59.93
20710;BME280;10516;51.518;9.864;2023-05-01T03:13:51;98951.34;;;8.27;61.16
20710;BME280;10516;51.518;9.864;2023-05-01T03:16:16;98956.88;;;8.38;60.55
20710;BME280;10516;51.518;9.864;2023-05-01T03:18:41;98953.13;;;8.15;61.62
20710;BME280;10516;51.518;9.864;2023-05-01T03:21:06;98946.56;;;8.41;60.90
20710;BME280;10516;51.518;9.864;2023-05-01T03:23:32;98949.47;;;8.40;60.92
20710;BME280;10516;51.518;9.864;2023-05-01T03:25:57;98944.41;;;8.38;61.31
20710;BME280;10516;51.518;9.864;2023-05-01T03:28:23;98943.47;;;8.32;60.81
20710;BME280;10516;51.518;9.864;2023-05-01T03:30:49;98943.19;;;8.11;61.77
20710;BME280;10516;51.518;9.864;2023-05-01T03:33:14;98936.16;;;8.28;60.98
20710;BME280;10516;51.518;9.864;2023-05-01T03:35:39;98941.94;;;8.37;60.60
20710;BME280;10516;51.518;9.864;2023-05-01T03:38:04;98942.06;;;8.30;60.32
20710;BME280;10516;51.518;9.864;2023-05-01T03:40:30;98936.94;;;8.17;61.23
20710;BME280;10516;51.518;9.864;2023-05-01T03:42:55;98932.34;;;8.12;60.97
20710;BME280;10516;51.518;9.864;2023-05-01T04:03:38;98932.69;;;8.16;61.26
20710;BME280;10516;51.518;9.864;2023-05-01T04:06:03;98922.97;;;8.10;60.54
20710;BME280;10516;51.518;9.864;2023-05-01T04:08:29;98915.44;;;8.07;61.21
20710;BME280;10516;51.518;9.864;2023-05-01T04:10:54;98914.63;;;8.06;61.42
20710;BME280;10516;51.518;9.864;2023-05-01T04:13:25;98921.59;;;8.19;61.14
20710;BME280;10516;51.518;9.864;2023-05-01T04:15:50;98912.34;;;8.10;61.90
20710;BME280;10516;51.518;9.864;2023-05-01T04:18:16;98906.22;;;8.09;60.96
20710;BME280;10516;51.518;9.864;2023-05-01T04:20:41;98908.19;;;8.14;61.33
20710;BME280;10516;51.518;9.864;2023-05-01T04:23:07;98915.00;;;8.10;61.57
20710;BME280;10516;51.518;9.864;2023-05-01T04:25:33;98907.47;;;8.07;61.21
20710;BME280;10516;51.518;9.864;2023-05-01T04:27:59;98910.97;;;8.19;60.95
20710;BME280;10516;51.518;9.864;2023-05-01T04:30:24;98903.19;;;8.17;61.16
20710;BME280;10516;51.518;9.864;2023-05-01T04:32:49;98904.84;;;8.18;61.62
20710;BME280;10516;51.518;9.864;2023-05-01T04:35:14;98906.72;;;8.29;60.88
20710;BME280;10516;51.518;9.864;2023-05-01T04:37:40;98904.06;;;8.29;61.69
20710;BME280;10516;51.518;9.864;2023-05-01T04:40:06;98900.78;;;8.39;61.54
20710;BME280;10516;51.518;9.864;2023-05-01T04:42:31;98901.59;;;8.28;61.32
20710;BME280;10516;51.518;9.864;2023-05-01T04:44:57;98897.34;;;8.27;61.23
20710;BME280;10516;51.518;9.864;2023-05-01T04:47:25;98898.13;;;8.39;61.16
20710;BME280;10516;51.518;9.864;2023-05-01T04:49:50;98897.56;;;8.37;61.92
20710;BME280;10516;51.518;9.864;2023-05-01T04:52:16;98902.75;;;8.44;61.27
20710;BME280;10516;51.518;9.864;2023-05-01T04:54:41;98901.69;;;7.87;63.41
20710;BME280;10516;51.518;9.864;2023-05-01T04:57:06;98908.72;;;7.28;66.88
20710;BME280;10516;51.518;9.864;2023-05-01T04:59:32;98908.03;;;7.03;68.51
20710;BME280;10516;51.518;9.864;2023-05-01T05:01:57;98909.34;;;7.42;66.07
20710;BME280;10516;51.518;9.864;2023-05-01T05:04:22;98906.06;;;7.28;68.07
20710;BME280;10516;51.518;9.864;2023-05-01T05:06:48;98911.69;;;7.62;65.19
20710;BME280;10516;51.518;9.864;2023-05-01T05:09:13;98911.28;;;7.88;65.18
20710;BME280;10516;51.518;9.864;2023-05-01T05:11:39;98914.88;;;7.11;67.06
20710;BME280;10516;51.518;9.864;2023-05-01T05:14:05;98905.03;;;7.82;64.68
20710;BME280;10516;51.518;9.864;2023-05-01T05:16:30;98904.06;;;8.29;62.78
20710;BME280;10516;51.518;9.864;2023-05-01T05:18:55;98916.16;;;8.14;63.88
20710;BME280;10516;51.518;9.864;2023-05-01T05:21:21;98906.31;;;8.03;63.08
20710;BME280;10516;51.518;9.864;2023-05-01T05:23:46;98905.97;;;8.22;63.13
20710;BME280;10516;51.518;9.864;2023-05-01T05:26:12;98904.59;;;8.43;62.58
20710;BME280;10516;51.518;9.864;2023-05-01T05:28:37;98901.03;;;8.14;63.83
20710;BME280;10516;51.518;9.864;2023-05-01T05:31:02;98897.19;;;8.57;61.75
20710;BME280;10516;51.518;9.864;2023-05-01T05:33:28;98902.44;;;8.40;62.46
20710;BME280;10516;51.518;9.864;2023-05-01T05:35:53;98895.72;;;8.38;62.93
20710;BME280;10516;51.518;9.864;2023-05-01T05:38:18;98898.97;;;7.52;64.19
20710;BME280;10516;51.518;9.864;2023-05-01T05:40:44;98891.59;;;7.66;64.71
20710;BME280;10516;51.518;9.864;2023-05-01T05:43:09;98889.94;;;8.29;63.85
20710;BME280;10516;51.518;9.864;2023-05-01T05:45:35;98890.03;;;7.99;64.63
20710;BME280;10516;51.518;9.864;2023-05-01T05:48:01;98892.66;;;7.76;65.96
20710;BME280;10516;51.518;9.864;2023-05-01T05:50:26;98888.06;;;8.18;64.67
20710;BME280;10516;51.518;9.864;2023-05-01T05:52:51;98886.78;;;7.97;65.80
20710;BME280;10516;51.518;9.864;2023-05-01T05:55:17;98887.16;;;8.47;62.98
20710;BME280;10516;51.518;9.864;2023-05-01T05:57:42;98890.13;;;7.70;66.42
20710;BME280;10516;51.518;9.864;2023-05-01T06:00:07;98892.56;;;8.17;64.76
20710;BME280;10516;51.518;9.864;2023-05-01T06:02:34;98883.94;;;8.45;63.79
20710;BME280;10516;51.518;9.864;2023-05-01T06:04:59;98884.94;;;8.56;63.13
20710;BME280;10516;51.518;9.864;2023-05-01T06:07:25;98891.22;;;8.26;64.57
20710;BME280;10516;51.518;9.864;2023-05-01T06:09:50;98884.56;;;8.75;62.64
20710;BME280;10516;51.518;9.864;2023-05-01T06:12:15;98883.66;;;8.00;65.10
20710;BME280;10516;51.518;9.864;2023-05-01T06:14:40;98885.97;;;8.43;64.03
20710;BME280;10516;51.518;9.864;2023-05-01T06:17:06;98883.66;;;8.23;64.04
20710;BME280;10516;51.518;9.864;2023-05-01T06:19:32;98878.44;;;8.63;63.40
20710;BME280;10516;51.518;9.864;2023-05-01T06:21:57;98877.72;;;8.68;63.78
20710;BME280;10516;51.518;9.864;2023-05-01T06:24:22;98875.59;;;9.21;61.93
20710;BME280;10516;51.518;9.864;2023-05-01T06:26:47;98878.53;;;9.36;62.06
20710;BME280;10516;51.518;9.864;2023-05-01T06:29:13;98874.03;;;9.70;61.14
20710;BME280;10516;51.518;9.864;2023-05-01T06:31:38;98871.53;;;9.19;62.22
20710;BME280;10516;51.518;9.864;2023-05-01T06:34:03;98874.81;;;9.09;61.83
20710;BME280;10516;51.518;9.864;2023-05-01T06:36:28;98870.88;;;9.56;61.39
20710;BME280;10516;51.518;9.864;2023-05-01T06:38:54;98863.78;;;9.62;62.06
20710;BME280;10516;51.518;9.864;2023-05-01T06:41:19;98877.59;;;9.14;62.12
20710;BME280;10516;51.518;9.864;2023-05-01T06:43:46;98866.44;;;9.62;61.58
20710;BME280;10516;51.518;9.864;2023-05-01T06:46:11;98872.88;;;9.66;61.01
20710;BME280;10516;51.518;9.864;2023-05-01T06:48:36;98860.28;;;9.95;60.72
20710;BME280;10516;51.518;9.864;2023-05-01T06:51:01;98864.16;;;10.20;59.44
20710;BME280;10516;51.518;9.864;2023-05-01T06:53:27;98866.75;;;9.82;61.50
20710;BME280;10516;51.518;9.864;2023-05-01T06:55:52;98865.72;;;9.50;61.04
20710;BME280;10516;51.518;9.864;2023-05-01T06:58:17;98856.41;;;9.86;61.01
20710;BME280;10516;51.518;9.864;2023-05-01T07:00:42;98861.19;;;10.17;61.24
20710;BME280;10516;51.518;9.864;2023-05-01T07:03:07;98856.16;;;10.20;59.98
20710;BME280;10516;51.518;9.864;2023-05-01T07:05:33;98858.59;;;10.22;60.60
20710;BME280;10516;51.518;9.864;2023-05-01T07:07:58;98860.38;;;10.54;59.86
20710;BME280;10516;51.518;9.864;2023-05-01T07:10:25;98862.91;;;10.66;59.04
20710;BME280;10516;51.518;9.864;2023-05-01T07:12:50;98850.44;;;10.72;59.28
20710;BME280;10516;51.518;9.864;2023-05-01T07:15:15;98849.56;;;10.44;59.74
20710;BME280;10516;51.518;9.864;2023-05-01T07:17:41;98853.28;;;10.43;61.01
20710;BME280;10516;51.518;9.864;2023-05-01T07:20:06;98846.59;;;10.41;60.33
20710;BME280;10516;51.518;9.864;2023-05-01T07:22:32;98854.88;;;10.66;59.26
20710;BME280;10516;51.518;9.864;2023-05-01T07:24:57;98854.59;;;10.84;58.86
20710;BME280;10516;51.518;9.864;2023-05-01T07:27:25;98845.09;;;10.72;59.49
20710;BME280;10516;51.518;9.864;2023-05-01T07:29:50;98844.41;;;11.03;58.81
20710;BME280;10516;51.518;9.864;2023-05-01T07:32:15;98845.50;;;11.07;58.64
20710;BME280;10516;51.518;9.864;2023-05-01T07:34:41;98834.28;;;11.10;58.47
20710;BME280;10516;51.518;9.864;2023-05-01T07:37:06;98831.69;;;11.15;58.19
20710;BME280;10516;51.518;9.864;2023-05-01T07:39:31;98836.81;;;11.21;57.86
20710;BME280;10516;51.518;9.864;2023-05-01T07:41:57;98834.34;;;10.88;61.02
20710;BME280;10516;51.518;9.864;2023-05-01T07:44:22;98834.16;;;10.51;59.40
20710;BME280;10516;51.518;9.864;2023-05-01T07:46:47;98832.44;;;10.62;59.73
20710;BME280;10516;51.518;9.864;2023-05-01T07:49:13;98823.00;;;10.76;60.52
20710;BME280;10516;51.518;9.864;2023-05-01T07:51:38;98820.75;;;11.16;58.81
20710;BME280;10516;51.518;9.864;2023-05-01T07:54:03;98821.31;;;10.92;59.41
20710;BME280;10516;51.518;9.864;2023-05-01T07:56:29;98816.81;;;11.24;58.64
20710;BME280;10516;51.518;9.864;2023-05-01T07:58:55;98813.78;;;11.15;60.37
20710;BME280;10516;51.518;9.864;2023-05-01T08:01:20;98812.66;;;11.38;58.87
20710;BME280;10516;51.518;9.864;2023-05-01T08:03:45;98800.88;;;11.66;58.28
20710;BME280;10516;51.518;9.864;2023-05-01T08:06:12;98811.00;;;11.32;60.30
20710;BME280;10516;51.518;9.864;2023-05-01T08:08:38;98795.28;;;11.67;58.31
20710;BME280;10516;51.518;9.864;2023-05-01T08:11:03;98799.41;;;11.85;58.20
20710;BME280;10516;51.518;9.864;2023-05-01T08:13:28;98799.47;;;11.58;59.98
20710;BME280;10516;51.518;9.864;2023-05-01T08:15:53;98795.09;;;11.47;60.89
20710;BME280;10516;51.518;9.864;2023-05-01T08:18:19;98793.34;;;11.63;60.01
20710;BME280;10516;51.518;9.864;2023-05-01T08:20:47;98793.78;;;11.50;60.52
20710;BME280;10516;51.518;9.864;2023-05-01T08:23:13;98792.88;;;12.08;58.44
20710;BME280;10516;51.518;9.864;2023-05-01T08:25:39;98800.69;;;12.14;58.62
20710;BME280;10516;51.518;9.864;2023-05-01T08:28:04;98793.81;;;11.86;60.88
20710;BME280;10516;51.518;9.864;2023-05-01T08:30:30;98792.66;;;12.19;58.67
20710;BME280;10516;51.518;9.864;2023-05-01T08:32:55;98786.28;;;12.25;59.07
20710;BME280;10516;51.518;9.864;2023-05-01T08:35:21;98788.72;;;12.32;58.76
20710;BME280;10516;51.518;9.864;2023-05-01T08:37:46;98791.75;;;12.50;59.01
20710;BME280;10516;51.518;9.864;2023-05-01T08:40:11;98787.44;;;12.49;59.77
20710;BME280;10516;51.518;9.864;2023-05-01T08:42:36;98780.28;;;12.70;57.54
20710;BME280;10516;51.518;9.864;2023-05-01T08:45:04;98780.00;;;12.61;59.79
20710;BME280;10516;51.518;9.864;2023-05-01T08:47:31;98777.09;;;12.78;59.22
20710;BME280;10516;51.518;9.864;2023-05-01T08:50:00;98784.06;;;12.79;60.30
20710;BME280;10516;51.518;9.864;2023-05-01T08:52:27;98768.28;;;12.88;58.52
20710;BME280;10516;51.518;9.864;2023-05-01T08:54:52;98768.28;;;12.88;58.31
20710;BME280;10516;51.518;9.864;2023-05-01T08:57:20;98770.78;;;13.14;57.42
20710;BME280;10516;51.518;9.864;2023-05-01T08:59:46;98769.44;;;13.27;57.06
20710;BME280;10516;51.518;9.864;2023-05-01T09:02:12;98764.34;;;13.05;57.79
20710;BME280;10516;51.518;9.864;2023-05-01T09:04:42;98764.09;;;13.27;57.51
20710;BME280;10516;51.518;9.864;2023-05-01T09:07:08;98766.47;;;13.43;57.67
20710;BME280;10516;51.518;9.864;2023-05-01T09:09:34;98757.09;;;13.46;57.66
20710;BME280;10516;51.518;9.864;2023-05-01T09:12:00;98760.59;;;13.67;56.65
20710;BME280;10516;51.518;9.864;2023-05-01T09:14:27;98754.66;;;13.70;57.65
20710;BME280;10516;51.518;9.864;2023-05-01T09:16:53;98760.56;;;13.77;57.50
20710;BME280;10516;51.518;9.864;2023-05-01T09:19:19;98745.28;;;13.82;56.83
20710;BME280;10516;51.518;9.864;2023-05-01T09:21:45;98753.00;;;14.04;56.14
20710;BME280;10516;51.518;9.864;2023-05-01T09:24:10;98748.16;;;14.06;56.91
20710;BME280;10516;51.518;9.864;2023-05-01T09:26:38;98743.53;;;14.21;56.17
20710;BME280;10516;51.518;9.864;2023-05-01T09:29:05;98738.69;;;14.34;55.95
20710;BME280;10516;51.518;9.864;2023-05-01T09:31:31;98742.13;;;14.44;55.88
20710;BME280;10516;51.518;9.864;2023-05-01T09:34:00;98741.28;;;14.49;56.97
20710;BME280;10516;51.518;9.864;2023-05-01T09:36:29;98733.44;;;14.62;55.70
20710;BME280;10516;51.518;9.864;2023-05-01T09:38:59;98740.22;;;14.50;55.32
20710;BME280;10516;51.518;9.864;2023-05-01T09:41:24;98728.81;;;14.73;55.45
20710;BME280;10516;51.518;9.864;2023-05-01T09:43:53;98723.41;;;14.83;54.69
20710;BME280;10516;51.518;9.864;2023-05-01T09:46:19;98721.75;;;14.87;55.36
20710;BME280;10516;51.518;9.864;2023-05-01T09:48:51;98722.91;;;14.71;54.12
20710;BME280;10516;51.518;9.864;2023-05-01T09:51:23;98718.69;;;14.60;54.29
20710;BME280;10516;51.518;9.864;2023-05-01T09:53:49;98713.47;;;14.78;54.71
20710;BME280;10516;51.518;9.864;2023-05-01T09:56:15;98706.44;;;15.21;54.94
20710;BME280;10516;51.518;9.864;2023-05-01T09:58:41;98707.34;;;15.40;54.52
20710;BME280;10516;51.518;9.864;2023-05-01T10:01:06;98704.75;;;15.30;53.70
20710;BME280;10516;51.518;9.864;2023-05-01T10:03:35;98711.06;;;15.16;52.89
20710;BME280;10516;51.518;9.864;2023-05-01T10:06:01;98703.91;;;15.01;52.34
20710;BME280;10516;51.518;9.864;2023-05-01T10:08:43;98715.66;;;15.10;53.87
20710;BME280;10516;51.518;9.864;2023-05-01T10:11:10;98706.69;;;15.53;53.86
20710;BME280;10516;51.518;9.864;2023-05-01T10:13:35;98699.63;;;15.62;53.06
20710;BME280;10516;51.518;9.864;2023-05-01T10:16:00;98701.13;;;15.45;53.13
20710;BME280;10516;51.518;9.864;2023-05-01T10:18:31;98697.94;;;15.95;53.39
20710;BME280;10516;51.518;9.864;2023-05-01T10:20:57;98701.81;;;16.08;52.85
20710;BME280;10516;51.518;9.864;2023-05-01T10:23:23;98696.16;;;16.09;53.34
20710;BME280;10516;51.518;9.864;2023-05-01T10:25:49;98687.63;;;16.02;52.40
20710;BME280;10516;51.518;9.864;2023-05-01T10:28:16;98693.88;;;16.40;53.08
20710;BME280;10516;51.518;9.864;2023-05-01T10:30:42;98692.47;;;16.42;52.42
20710;BME280;10516;51.518;9.864;2023-05-01T10:33:11;98696.78;;;16.43;52.81
20710;BME280;10516;51.518;9.864;2023-05-01T10:35:38;98694.22;;;16.57;52.44
20710;BME280;10516;51.518;9.864;2023-05-01T10:38:05;98686.72;;;16.73;51.15
20710;BME280;10516;51.518;9.864;2023-05-01T10:40:46;98681.75;;;16.80;50.79
20710;BME280;10516;51.518;9.864;2023-05-01T10:45:50;98678.66;;;17.05;50.96
20710;BME280;10516;51.518;9.864;2023-05-01T10:51:16;98677.75;;;16.77;50.04
20710;BME280;10516;51.518;9.864;2023-05-01T10:53:44;98673.66;;;16.98;49.19
20710;BME280;10516;51.518;9.864;2023-05-01T10:58:55;98665.94;;;17.24;52.13
20710;BME280;10516;51.518;9.864;2023-05-01T11:03:52;98653.78;;;17.40;50.15
20710;BME280;10516;51.518;9.864;2023-05-01T11:06:17;98645.63;;;17.59;49.89
20710;BME280;10516;51.518;9.864;2023-05-01T11:08:42;98648.84;;;17.61;50.13
20710;BME280;10516;51.518;9.864;2023-05-01T11:18:59;98646.47;;;17.86;50.34
20710;BME280;10516;51.518;9.864;2023-05-01T11:21:31;98642.34;;;17.89;49.73
20710;BME280;10516;51.518;9.864;2023-05-01T11:24:04;98641.44;;;18.07;49.33
20710;BME280;10516;51.518;9.864;2023-05-01T11:26:30;98642.41;;;18.25;49.56
20710;BME280;10516;51.518;9.864;2023-05-01T11:28:58;98646.50;;;18.36;49.46
20710;BME280;10516;51.518;9.864;2023-05-01T11:31:27;98643.91;;;18.44;49.37
20710;BME280;10516;51.518;9.864;2023-05-01T11:33:56;98636.38;;;18.55;49.18
20710;BME280;10516;51.518;9.864;2023-05-01T11:36:22;98635.31;;;18.78;48.91
20710;BME280;10516;51.518;9.864;2023-05-01T11:38:51;98626.19;;;18.74;48.45
20710;BME280;10516;51.518;9.864;2023-05-01T11:41:19;98631.59;;;18.96;46.48
20710;BME280;10516;51.518;9.864;2023-05-01T11:43:51;98623.22;;;19.28;47.00
20710;BME280;10516;51.518;9.864;2023-05-01T11:48:52;98620.38;;;19.64;46.51
20710;BME280;10516;51.518;9.864;2023-05-01T11:51:18;98616.78;;;19.86;45.32
20710;BME280;10516;51.518;9.864;2023-05-01T11:53:56;98618.28;;;20.00;43.65
20710;BME280;10516;51.518;9.864;2023-05-01T11:56:21;98607.75;;;20.07;44.52
20710;BME280;10516;51.518;9.864;2023-05-01T11:58:48;98607.78;;;19.60;44.20
20710;BME280;10516;51.518;9.864;2023-05-01T12:01:16;98615.28;;;19.63;47.22
20710;BME280;10516;51.518;9.864;2023-05-01T12:03:44;98605.34;;;19.89;46.80
20710;BME280;10516;51.518;9.864;2023-05-01T12:06:10;98610.25;;;19.78;46.66
20710;BME280;10516;51.518;9.864;2023-05-01T12:08:40;98613.66;;;19.62;46.63
20710;BME280;10516;51.518;9.864;2023-05-01T12:11:05;98609.81;;;19.46;47.18
20710;BME280;10516;51.518;9.864;2023-05-01T12:13:31;98614.03;;;19.69;46.72
20710;BME280;10516;51.518;9.864;2023-05-01T12:15:56;98609.47;;;19.86;43.85
20710;BME280;10516;51.518;9.864;2023-05-01T12:18:21;98603.00;;;20.13;42.94
20710;BME280;10516;51.518;9.864;2023-05-01T12:20:48;98610.13;;;19.92;43.20
20710;BME280;10516;51.518;9.864;2023-05-01T12:23:17;98609.81;;;19.93;45.46
20710;BME280;10516;51.518;9.864;2023-05-01T12:25:42;98603.56;;;19.84;45.93
20710;BME280;10516;51.518;9.864;2023-05-01T12:28:12;98600.03;;;19.75;43.62
20710;BME280;10516;51.518;9.864;2023-05-01T12:30:38;98595.81;;;20.00;43.69
20710;BME280;10516;51.518;9.864;2023-05-01T12:33:37;98597.09;;;20.11;42.66
20710;BME280;10516;51.518;9.864;2023-05-01T12:36:07;98598.25;;;20.27;42.36
20710;BME280;10516;51.518;9.864;2023-05-01T12:38:32;98602.22;;;20.21;45.05
20710;BME280;10516;51.518;9.864;2023-05-01T12:40:58;98593.81;;;20.40;42.50
20710;BME280;10516;51.518;9.864;2023-05-01T12:43:34;98597.28;;;20.23;44.34
20710;BME280;10516;51.518;9.864;2023-05-01T12:46:00;98592.63;;;20.15;45.40
20710;BME280;10516;51.518;9.864;2023-05-01T12:48:26;98594.19;;;19.99;45.00
20710;BME280;10516;51.518;9.864;2023-05-01T12:50:51;98588.50;;;20.09;45.51
20710;BME280;10516;51.518;9.864;2023-05-01T12:53:20;98583.13;;;20.35;45.12
20710;BME280;10516;51.518;9.864;2023-05-01T12:55:47;98586.16;;;20.50;44.77
20710;BME280;10516;51.518;9.864;2023-05-01T12:58:13;98582.78;;;20.45;40.84
20710;BME280;10516;51.518;9.864;2023-05-01T13:03:08;98568.59;;;20.48;41.38
20710;BME280;10516;51.518;9.864;2023-05-01T13:05:33;98565.72;;;20.70;43.71
20710;BME280;10516;51.518;9.864;2023-05-01T13:07:58;98564.88;;;20.86;43.63
20710;BME280;10516;51.518;9.864;2023-05-01T13:10:29;98568.13;;;20.54;40.36
20710;BME280;10516;51.518;9.864;2023-05-01T13:12:55;98565.56;;;20.66;41.58
20710;BME280;10516;51.518;9.864;2023-05-01T13:15:21;98567.97;;;20.59;44.91
20710;BME280;10516;51.518;9.864;2023-05-01T13:17:46;98557.44;;;20.41;42.14
20710;BME280;10516;51.518;9.864;2023-05-01T13:20:11;98561.50;;;19.87;42.74
20710;BME280;10516;51.518;9.864;2023-05-01T13:22:37;98565.69;;;20.18;45.30
20710;BME280;10516;51.518;9.864;2023-05-01T13:25:16;98565.09;;;20.30;45.10
20710;BME280;10516;51.518;9.864;2023-05-01T13:27:49;98560.97;;;20.33;45.63
20710;BME280;10516;51.518;9.864;2023-05-01T13:30:15;98558.25;;;20.33;42.44
20710;BME280;10516;51.518;9.864;2023-05-01T13:32:42;98559.34;;;20.49;44.53
20710;BME280;10516;51.518;9.864;2023-05-01T13:35:08;98554.56;;;20.46;42.29
20710;BME280;10516;51.518;9.864;2023-05-01T13:37:37;98548.00;;;20.55;41.93
20710;BME280;10516;51.518;9.864;2023-05-01T13:40:04;98552.66;;;20.55;45.23
20710;BME280;10516;51.518;9.864;2023-05-01T13:42:29;98555.34;;;20.29;45.68
20710;BME280;10516;51.518;9.864;2023-05-01T13:44:55;98547.25;;;20.38;45.01
20710;BME280;10516;51.518;9.864;2023-05-01T13:47:21;98547.88;;;20.26;45.55
20710;BME280;10516;51.518;9.864;2023-05-01T13:49:49;98548.50;;;20.23;45.54
20710;BME280;10516;51.518;9.864;2023-05-01T13:52:15;98545.78;;;20.23;45.41
20710;BME280;10516;51.518;9.864;2023-05-01T13:54:41;98542.91;;;20.11;45.73
20710;BME280;10516;51.518;9.864;2023-05-01T13:57:07;98546.41;;;20.11;45.67
20710;BME280;10516;51.518;9.864;2023-05-01T13:59:35;98548.69;;;20.27;42.95
20710;BME280;10516;51.518;9.864;2023-05-01T14:02:01;98547.88;;;20.43;44.64